Kapitan Rogozin — UAZN — position and weather

sailwx.info

Track history (hours):
 
Tides and Currents Weather Stations Pressure Air Temp Water Temp Dewpoint Dewpoint Depression Visibility Wind Speed Wind Dir Waves Ship Positions

Kapitan Rogozin

Last reported at 2018-Feb-15 02:16 UTC. Time now 2018-Feb-24 18:00 UTC.
Position N 70°10' E 032°02'.
Warning: this ship's position is 9 days out of date.

Length 55 m; draft 4.1 m.

Type: Fishing. MMSI: 273510600.

Date/timePositionNaut miles runAvg speedWind from/ knotsBaromVisibWave heightAir tempDewpointWater temp
2018-Feb-15 02:16N 70°10' E 032°02'0 1.3
2018-Feb-15 02:00N 70°10' E 032°01'3 5.4
2018-Feb-15 01:30N 70°10' E 031°53'5 9.6
2018-Feb-15 01:00N 70°09' E 031°39'5 9.7
2018-Feb-15 00:30N 70°07' E 031°26'5 9.6
2018-Feb-15 00:00N 70°05' E 031°12'5 9.8
2018-Feb-14 23:29N 70°03' E 030°59'5 9.7
2018-Feb-14 23:00N 70°01' E 030°47'5 9.7
2018-Feb-14 22:30N 69°59' E 030°35'5 9.9
2018-Feb-14 22:00N 69°56' E 030°22'510.1
2018-Feb-14 21:30N 69°54' E 030°09'510.2
2018-Feb-14 21:00N 69°49' E 030°07'5 9.6
2018-Feb-14 20:30N 69°44' E 030°05'0 0.0
2018-Feb-14 20:00N 69°44' E 030°05'0 0.0
2018-Feb-14 19:28N 69°44' E 030°05'0 0.0
2018-Feb-14 18:58N 69°44' E 030°05'0 0.0
2018-Feb-14 18:28N 69°44' E 030°05'0 0.0
2018-Feb-14 17:58N 69°44' E 030°05'0 0.0
2018-Feb-14 17:28N 69°44' E 030°05'0 0.0
2018-Feb-14 17:00N 69°44' E 030°05'1 1.8
2018-Feb-14 16:30N 69°45' E 030°06'4 8.7
2018-Feb-14 16:00N 69°49' E 030°07'4 8.4
2018-Feb-14 15:30N 69°53' E 030°08'4 8.8
2018-Feb-14 15:00N 69°56' E 030°19'4 9.2
2018-Feb-14 14:30N 69°58' E 030°31'5 9.4
2018-Feb-14 14:00N 70°00' E 030°43'4 9.0
2018-Feb-14 13:31N 70°02' E 030°54'4 8.6
2018-Feb-14 13:00N 70°04' E 031°05'4 8.3
2018-Feb-14 12:30N 70°06' E 031°17'4 7.9
2018-Feb-14 12:00N 70°07' E 031°27'4 7.9
2018-Feb-14 11:30N 70°09' E 031°38'4 8.2
2018-Feb-14 11:00N 70°10' E 031°50'4 7.8
2018-Feb-14 10:30N 70°11' E 032°01'71 7.3
2018-Feb-14 00:44N 69°03' E 033°05'1 6.1
2018-Feb-14 00:30N 69°02' E 033°03'3 6.6
2018-Feb-14 00:01N 68°59' E 033°02'1 1.9
2018-Feb-13 23:30N 68°58' E 033°01'0 0.0
2018-Feb-13 22:58N 68°58' E 033°01'0 0.0
2018-Feb-13 22:25N 68°58' E 033°01'0 0.0
2018-Feb-13 21:58N 68°58' E 033°01'0 0.0
2018-Feb-13 21:27N 68°58' E 033°01'0 0.0
2018-Feb-13 20:57N 68°58' E 033°01'0 0.0
2018-Feb-13 20:30N 68°58' E 033°01'0 0.0
2018-Feb-13 19:58N 68°58' E 033°01'0 0.0
2018-Feb-13 19:29N 68°58' E 033°01'0 0.0
2018-Feb-13 19:00N 68°58' E 033°01'0 0.0
2018-Feb-13 18:25N 68°58' E 033°01'0 0.0
2018-Feb-13 17:58N 68°58' E 033°01'0 0.0
2018-Feb-13 17:31N 68°58' E 033°01'0 0.0
2018-Feb-13 17:00N 68°58' E 033°01'0 1.0
2018-Feb-13 16:31N 68°58' E 033°02'3 5.1
2018-Feb-13 16:00N 69°01' E 033°03'0 0.1
2018-Feb-13 15:27N 69°01' E 033°04'0 0.0
2018-Feb-13 15:00N 69°01' E 033°04'0 0.0
2018-Feb-13 14:28N 69°01' E 033°04'0 0.0
2018-Feb-13 14:00N 69°01' E 033°04'0 0.0
2018-Feb-13 13:30N 69°01' E 033°04'0 0.0
2018-Feb-13 12:58N 69°01' E 033°04'0 0.0
2018-Feb-13 12:27N 69°01' E 033°04'0 0.0
2018-Feb-13 11:53N 69°01' E 033°04'0 0.0
2018-Feb-13 11:28N 69°01' E 033°04'0 0.0
2018-Feb-13 06:13N 69°01' E 033°04'0 0.0
2018-Feb-13 05:57N 69°01' E 033°04'0 0.0
2018-Feb-13 05:25N 69°01' E 033°04'0 0.0
2018-Feb-13 04:59N 69°01' E 033°04'0 0.0
2018-Feb-13 04:29N 69°01' E 033°04'0 0.0
2018-Feb-13 03:58N 69°01' E 033°04'0 0.0
2018-Feb-13 03:26N 69°01' E 033°04'0 0.0
2018-Feb-13 03:00N 69°01' E 033°04'0 0.0
2018-Feb-13 02:29N 69°01' E 033°04'0 0.0
2018-Feb-13 01:55N 69°01' E 033°04'0 0.0
2018-Feb-13 01:26N 69°01' E 033°04'0 0.0
2018-Feb-13 00:54N 69°01' E 033°04'0 0.0
2018-Feb-13 00:30N 69°01' E 033°04'0 0.0
2018-Feb-12 23:57N 69°01' E 033°04'0 0.0
2018-Feb-12 23:26N 69°01' E 033°04'0 0.0
2018-Feb-12 22:59N 69°01' E 033°04'0 0.0
2018-Feb-12 22:29N 69°01' E 033°04'0 0.0
2018-Feb-12 21:57N 69°01' E 033°04'0 0.0
2018-Feb-12 21:25N 69°01' E 033°04'0 0.0
2018-Feb-12 21:00N 69°01' E 033°04'0 0.0
2018-Feb-12 20:30N 69°01' E 033°04'0 0.0
2018-Feb-12 19:56N 69°01' E 033°04'0 0.0
2018-Feb-12 19:25N 69°01' E 033°04'0 0.0
2018-Feb-12 19:00N 69°01' E 033°04'0 0.2
2018-Feb-12 18:30N 69°01' E 033°03'0 0.2
2018-Feb-12 17:57N 69°01' E 033°04'0 0.0
2018-Feb-12 17:25N 69°01' E 033°04'0 0.0
2018-Feb-12 16:53N 69°01' E 033°04'0 0.0
2018-Feb-12 16:29N 69°01' E 033°04'0 0.0
2018-Feb-12 15:58N 69°01' E 033°04'0 0.0
2018-Feb-12 15:17N 69°01' E 033°04'0 0.0
2018-Feb-12 15:00N 69°01' E 033°04'0 0.0
2018-Feb-12 14:30N 69°01' E 033°04'0 0.0
2018-Feb-12 13:58N 69°01' E 033°04'0 0.0
2018-Feb-12 13:24N 69°01' E 033°04'0 0.0
2018-Feb-12 12:54N 69°01' E 033°04'0 0.0
2018-Feb-12 12:28N 69°01' E 033°04'0 0.0
2018-Feb-12 11:58N 69°01' E 033°04'0 0.0
2018-Feb-12 11:24N 69°01' E 033°04'0 0.0
2018-Feb-12 11:00N 69°01' E 033°04'0 0.0
2018-Feb-12 10:30N 69°01' E 033°04'0 0.0
2018-Feb-12 09:58N 69°01' E 033°04'0 0.0
2018-Feb-12 09:24N 69°01' E 033°04'0 0.0
2018-Feb-12 08:59N 69°01' E 033°04'0 0.0
2018-Feb-12 08:28N 69°01' E 033°04'0 0.0
2018-Feb-12 07:40N 69°01' E 033°04'0 0.0
2018-Feb-12 07:29N 69°01' E 033°04'0 0.0
2018-Feb-12 06:46N 69°01' E 033°04'0 0.0
2018-Feb-12 06:12N 69°01' E 033°04'0 0.0
2018-Feb-12 05:58N 69°01' E 033°04'0 0.0
2018-Feb-12 03:29N 69°01' E 033°04'0 0.0
2018-Feb-12 02:56N 69°01' E 033°04'0 0.0
2018-Feb-12 02:05N 69°01' E 033°04'0 0.0
2018-Feb-12 01:48N 69°01' E 033°04'0 0.0
2018-Feb-12 01:30N 69°01' E 033°04'0 0.0
2018-Feb-12 00:28N 69°01' E 033°04'0 0.0
2018-Feb-11 23:55N 69°01' E 033°04'0 0.0
2018-Feb-11 22:36N 69°01' E 033°04'0 0.0
2018-Feb-11 22:29N 69°01' E 033°04'0 0.0
2018-Feb-11 12:05N 69°01' E 033°04'0 0.0
2018-Feb-11 11:35N 69°01' E 033°04'0 0.0
2018-Feb-11 11:11N 69°01' E 033°04'0 0.0
2018-Feb-11 10:57N 69°01' E 033°04'1 2.2
2018-Feb-11 10:30N 68°60' E 033°03'2 3.8
2018-Feb-11 09:51N 68°57' E 033°01'0 0.0
2018-Feb-11 08:25N 68°57' E 033°01'1 2.1
2018-Feb-11 08:00N 68°58' E 033°02'3 6.2
2018-Feb-11 07:30N 69°01' E 033°03'  
Track history (hours):
 
Tides and Currents Weather Stations Pressure Air Temp Water Temp Dewpoint Dewpoint Depression Visibility Wind Speed Wind Dir Waves Ship Positions

Kapitan Rogozin

Last reported at 2018-Feb-15 02:16 UTC. Time now 2018-Feb-24 18:00 UTC.
Position N 70°10' E 032°02'.
Warning: this ship's position is 9 days out of date.

Length 55 m; draft 4.1 m.

Type: Fishing. MMSI: 273510600.

Date/timePositionNaut miles runAvg speedWind from/ knotsBaromVisibWave heightAir tempDewpointWater temp
2018-Feb-15 02:16N 70°10' E 032°02'0 1.3
2018-Feb-15 02:00N 70°10' E 032°01'3 5.4
2018-Feb-15 01:30N 70°10' E 031°53'5 9.6
2018-Feb-15 01:00N 70°09' E 031°39'5 9.7
2018-Feb-15 00:30N 70°07' E 031°26'5 9.6
2018-Feb-15 00:00N 70°05' E 031°12'5 9.8
2018-Feb-14 23:29N 70°03' E 030°59'5 9.7
2018-Feb-14 23:00N 70°01' E 030°47'5 9.7
2018-Feb-14 22:30N 69°59' E 030°35'5 9.9
2018-Feb-14 22:00N 69°56' E 030°22'510.1
2018-Feb-14 21:30N 69°54' E 030°09'510.2
2018-Feb-14 21:00N 69°49' E 030°07'5 9.6
2018-Feb-14 20:30N 69°44' E 030°05'0 0.0
2018-Feb-14 20:00N 69°44' E 030°05'0 0.0
2018-Feb-14 19:28N 69°44' E 030°05'0 0.0
2018-Feb-14 18:58N 69°44' E 030°05'0 0.0
2018-Feb-14 18:28N 69°44' E 030°05'0 0.0
2018-Feb-14 17:58N 69°44' E 030°05'0 0.0
2018-Feb-14 17:28N 69°44' E 030°05'0 0.0
2018-Feb-14 17:00N 69°44' E 030°05'1 1.8
2018-Feb-14 16:30N 69°45' E 030°06'4 8.7
2018-Feb-14 16:00N 69°49' E 030°07'4 8.4
2018-Feb-14 15:30N 69°53' E 030°08'4 8.8
2018-Feb-14 15:00N 69°56' E 030°19'4 9.2
2018-Feb-14 14:30N 69°58' E 030°31'5 9.4
2018-Feb-14 14:00N 70°00' E 030°43'4 9.0
2018-Feb-14 13:31N 70°02' E 030°54'4 8.6
2018-Feb-14 13:00N 70°04' E 031°05'4 8.3
2018-Feb-14 12:30N 70°06' E 031°17'4 7.9
2018-Feb-14 12:00N 70°07' E 031°27'4 7.9
2018-Feb-14 11:30N 70°09' E 031°38'4 8.2
2018-Feb-14 11:00N 70°10' E 031°50'4 7.8
2018-Feb-14 10:30N 70°11' E 032°01'71 7.3
2018-Feb-14 00:44N 69°03' E 033°05'1 6.1
2018-Feb-14 00:30N 69°02' E 033°03'3 6.6
2018-Feb-14 00:01N 68°59' E 033°02'1 1.9
2018-Feb-13 23:30N 68°58' E 033°01'0 0.0
2018-Feb-13 22:58N 68°58' E 033°01'0 0.0
2018-Feb-13 22:25N 68°58' E 033°01'0 0.0
2018-Feb-13 21:58N 68°58' E 033°01'0 0.0
2018-Feb-13 21:27N 68°58' E 033°01'0 0.0
2018-Feb-13 20:57N 68°58' E 033°01'0 0.0
2018-Feb-13 20:30N 68°58' E 033°01'0 0.0
2018-Feb-13 19:58N 68°58' E 033°01'0 0.0
2018-Feb-13 19:29N 68°58' E 033°01'0 0.0
2018-Feb-13 19:00N 68°58' E 033°01'0 0.0
2018-Feb-13 18:25N 68°58' E 033°01'0 0.0
2018-Feb-13 17:58N 68°58' E 033°01'0 0.0
2018-Feb-13 17:31N 68°58' E 033°01'0 0.0
2018-Feb-13 17:00N 68°58' E 033°01'0 1.0
2018-Feb-13 16:31N 68°58' E 033°02'3 5.1
2018-Feb-13 16:00N 69°01' E 033°03'0 0.1
2018-Feb-13 15:27N 69°01' E 033°04'0 0.0
2018-Feb-13 15:00N 69°01' E 033°04'0 0.0
2018-Feb-13 14:28N 69°01' E 033°04'0 0.0
2018-Feb-13 14:00N 69°01' E 033°04'0 0.0
2018-Feb-13 13:30N 69°01' E 033°04'0 0.0
2018-Feb-13 12:58N 69°01' E 033°04'0 0.0
2018-Feb-13 12:27N 69°01' E 033°04'0 0.0
2018-Feb-13 11:53N 69°01' E 033°04'0 0.0
2018-Feb-13 11:28N 69°01' E 033°04'0 0.0
2018-Feb-13 06:13N 69°01' E 033°04'0 0.0
2018-Feb-13 05:57N 69°01' E 033°04'0 0.0
2018-Feb-13 05:25N 69°01' E 033°04'0 0.0
2018-Feb-13 04:59N 69°01' E 033°04'0 0.0
2018-Feb-13 04:29N 69°01' E 033°04'0 0.0
2018-Feb-13 03:58N 69°01' E 033°04'0 0.0
2018-Feb-13 03:26N 69°01' E 033°04'0 0.0
2018-Feb-13 03:00N 69°01' E 033°04'0 0.0
2018-Feb-13 02:29N 69°01' E 033°04'0 0.0
2018-Feb-13 01:55N 69°01' E 033°04'0 0.0
2018-Feb-13 01:26N 69°01' E 033°04'0 0.0
2018-Feb-13 00:54N 69°01' E 033°04'0 0.0
2018-Feb-13 00:30N 69°01' E 033°04'0 0.0
2018-Feb-12 23:57N 69°01' E 033°04'0 0.0
2018-Feb-12 23:26N 69°01' E 033°04'0 0.0
2018-Feb-12 22:59N 69°01' E 033°04'0 0.0
2018-Feb-12 22:29N 69°01' E 033°04'0 0.0
2018-Feb-12 21:57N 69°01' E 033°04'0 0.0
2018-Feb-12 21:25N 69°01' E 033°04'0 0.0
2018-Feb-12 21:00N 69°01' E 033°04'0 0.0
2018-Feb-12 20:30N 69°01' E 033°04'0 0.0
2018-Feb-12 19:56N 69°01' E 033°04'0 0.0
2018-Feb-12 19:25N 69°01' E 033°04'0 0.0
2018-Feb-12 19:00N 69°01' E 033°04'0 0.2
2018-Feb-12 18:30N 69°01' E 033°03'0 0.2
2018-Feb-12 17:57N 69°01' E 033°04'0 0.0
2018-Feb-12 17:25N 69°01' E 033°04'0 0.0
2018-Feb-12 16:53N 69°01' E 033°04'0 0.0
2018-Feb-12 16:29N 69°01' E 033°04'0 0.0
2018-Feb-12 15:58N 69°01' E 033°04'0 0.0
2018-Feb-12 15:17N 69°01' E 033°04'0 0.0
2018-Feb-12 15:00N 69°01' E 033°04'0 0.0
2018-Feb-12 14:30N 69°01' E 033°04'0 0.0
2018-Feb-12 13:58N 69°01' E 033°04'0 0.0
2018-Feb-12 13:24N 69°01' E 033°04'0 0.0
2018-Feb-12 12:54N 69°01' E 033°04'0 0.0
2018-Feb-12 12:28N 69°01' E 033°04'0 0.0
2018-Feb-12 11:58N 69°01' E 033°04'0 0.0
2018-Feb-12 11:24N 69°01' E 033°04'0 0.0
2018-Feb-12 11:00N 69°01' E 033°04'0 0.0
2018-Feb-12 10:30N 69°01' E 033°04'0 0.0
2018-Feb-12 09:58N 69°01' E 033°04'0 0.0
2018-Feb-12 09:24N 69°01' E 033°04'0 0.0
2018-Feb-12 08:59N 69°01' E 033°04'0 0.0
2018-Feb-12 08:28N 69°01' E 033°04'0 0.0
2018-Feb-12 07:40N 69°01' E 033°04'0 0.0
2018-Feb-12 07:29N 69°01' E 033°04'0 0.0
2018-Feb-12 06:46N 69°01' E 033°04'0 0.0
2018-Feb-12 06:12N 69°01' E 033°04'0 0.0
2018-Feb-12 05:58N 69°01' E 033°04'0 0.0
2018-Feb-12 03:29N 69°01' E 033°04'0 0.0
2018-Feb-12 02:56N 69°01' E 033°04'0 0.0
2018-Feb-12 02:05N 69°01' E 033°04'0 0.0
2018-Feb-12 01:48N 69°01' E 033°04'0 0.0
2018-Feb-12 01:30N 69°01' E 033°04'0 0.0
2018-Feb-12 00:28N 69°01' E 033°04'0 0.0
2018-Feb-11 23:55N 69°01' E 033°04'0 0.0
2018-Feb-11 22:36N 69°01' E 033°04'0 0.0
2018-Feb-11 22:29N 69°01' E 033°04'0 0.0
2018-Feb-11 12:05N 69°01' E 033°04'0 0.0
2018-Feb-11 11:35N 69°01' E 033°04'0 0.0
2018-Feb-11 11:11N 69°01' E 033°04'0 0.0
2018-Feb-11 10:57N 69°01' E 033°04'1 2.2
2018-Feb-11 10:30N 68°60' E 033°03'2 3.8
2018-Feb-11 09:51N 68°57' E 033°01'0 0.0
2018-Feb-11 08:25N 68°57' E 033°01'1 2.1
2018-Feb-11 08:00N 68°58' E 033°02'3 6.2
2018-Feb-11 07:30N 69°01' E 033°03'  

Dump ship's entire track history